sensor_id;sensor_type;location;lat;lon;timestamp;P1;durP1;ratioP1;P2;durP2;ratioP2
16737;SDS011;17906;47.684;10.806;2023-07-31T00:00:11;3.63;;;2.60;;
16737;SDS011;17906;47.684;10.806;2023-07-31T00:02:38;7.80;;;2.90;;
16737;SDS011;17906;47.684;10.806;2023-07-31T00:05:05;7.57;;;2.60;;
16737;SDS011;17906;47.684;10.806;2023-07-31T00:07:31;7.60;;;2.50;;
16737;SDS011;17906;47.684;10.806;2023-07-31T00:09:58;7.00;;;2.83;;
16737;SDS011;17906;47.684;10.806;2023-07-31T00:12:26;5.93;;;2.67;;
16737;SDS011;17906;47.684;10.806;2023-07-31T00:14:52;7.37;;;2.40;;
16737;SDS011;17906;47.684;10.806;2023-07-31T00:17:19;5.80;;;2.40;;
16737;SDS011;17906;47.684;10.806;2023-07-31T00:19:45;4.10;;;2.30;;
16737;SDS011;17906;47.684;10.806;2023-07-31T00:22:14;6.83;;;2.93;;
16737;SDS011;17906;47.684;10.806;2023-07-31T00:24:40;6.00;;;2.60;;
16737;SDS011;17906;47.684;10.806;2023-07-31T00:27:07;5.77;;;2.43;;
16737;SDS011;17906;47.684;10.806;2023-07-31T00:29:34;3.70;;;2.47;;
16737;SDS011;17906;47.684;10.806;2023-07-31T00:32:01;4.07;;;2.80;;
16737;SDS011;17906;47.684;10.806;2023-07-31T00:34:27;4.87;;;2.53;;
16737;SDS011;17906;47.684;10.806;2023-07-31T00:36:53;2.70;;;2.13;;
16737;SDS011;17906;47.684;10.806;2023-07-31T00:39:20;4.27;;;2.43;;
16737;SDS011;17906;47.684;10.806;2023-07-31T00:41:46;4.77;;;2.40;;
16737;SDS011;17906;47.684;10.806;2023-07-31T00:44:13;5.27;;;2.50;;
16737;SDS011;17906;47.684;10.806;2023-07-31T00:46:40;3.23;;;2.07;;
16737;SDS011;17906;47.684;10.806;2023-07-31T00:49:07;2.53;;;1.93;;
16737;SDS011;17906;47.684;10.806;2023-07-31T00:51:33;3.90;;;1.90;;
16737;SDS011;17906;47.684;10.806;2023-07-31T00:54:00;4.20;;;1.87;;
16737;SDS011;17906;47.684;10.806;2023-07-31T00:56:26;4.30;;;2.00;;
16737;SDS011;17906;47.684;10.806;2023-07-31T00:58:53;3.40;;;2.10;;
16737;SDS011;17906;47.684;10.806;2023-07-31T01:01:21;8.37;;;2.03;;
16737;SDS011;17906;47.684;10.806;2023-07-31T01:03:48;2.53;;;2.17;;
16737;SDS011;17906;47.684;10.806;2023-07-31T01:06:18;5.30;;;2.10;;
16737;SDS011;17906;47.684;10.806;2023-07-31T01:08:51;3.40;;;2.33;;
16737;SDS011;17906;47.684;10.806;2023-07-31T01:11:22;5.33;;;2.50;;
16737;SDS011;17906;47.684;10.806;2023-07-31T01:13:50;3.43;;;2.30;;
16737;SDS011;17906;47.684;10.806;2023-07-31T01:16:17;6.00;;;2.33;;
16737;SDS011;17906;47.684;10.806;2023-07-31T01:18:44;3.70;;;1.80;;
16737;SDS011;17906;47.684;10.806;2023-07-31T01:21:17;5.40;;;2.10;;
16737;SDS011;17906;47.684;10.806;2023-07-31T01:23:51;2.73;;;2.13;;
16737;SDS011;17906;47.684;10.806;2023-07-31T01:26:23;2.83;;;2.10;;
16737;SDS011;17906;47.684;10.806;2023-07-31T01:28:53;4.67;;;2.30;;
16737;SDS011;17906;47.684;10.806;2023-07-31T01:31:22;3.83;;;2.73;;
16737;SDS011;17906;47.684;10.806;2023-07-31T01:33:50;4.80;;;2.33;;
16737;SDS011;17906;47.684;10.806;2023-07-31T01:36:17;7.20;;;2.33;;
16737;SDS011;17906;47.684;10.806;2023-07-31T01:38:43;3.23;;;2.17;;
16737;SDS011;17906;47.684;10.806;2023-07-31T01:41:10;4.63;;;2.20;;
16737;SDS011;17906;47.684;10.806;2023-07-31T01:43:38;4.53;;;2.00;;
16737;SDS011;17906;47.684;10.806;2023-07-31T01:46:04;2.90;;;2.20;;
16737;SDS011;17906;47.684;10.806;2023-07-31T01:48:30;6.30;;;2.10;;
16737;SDS011;17906;47.684;10.806;2023-07-31T01:51:00;4.67;;;2.27;;
16737;SDS011;17906;47.684;10.806;2023-07-31T01:53:27;3.60;;;2.10;;
16737;SDS011;17906;47.684;10.806;2023-07-31T01:55:53;2.73;;;2.00;;
16737;SDS011;17906;47.684;10.806;2023-07-31T01:58:20;2.37;;;2.00;;
16737;SDS011;17906;47.684;10.806;2023-07-31T02:00:48;4.63;;;2.10;;
16737;SDS011;17906;47.684;10.806;2023-07-31T02:03:19;4.33;;;2.17;;
16737;SDS011;17906;47.684;10.806;2023-07-31T02:05:46;3.77;;;1.90;;
16737;SDS011;17906;47.684;10.806;2023-07-31T02:08:12;3.23;;;2.23;;
16737;SDS011;17906;47.684;10.806;2023-07-31T02:10:39;4.80;;;2.07;;
16737;SDS011;17906;47.684;10.806;2023-07-31T02:13:05;4.87;;;2.40;;
16737;SDS011;17906;47.684;10.806;2023-07-31T02:15:31;4.53;;;2.20;;
16737;SDS011;17906;47.684;10.806;2023-07-31T02:17:59;4.93;;;2.10;;
16737;SDS011;17906;47.684;10.806;2023-07-31T02:20:25;2.93;;;1.93;;
16737;SDS011;17906;47.684;10.806;2023-07-31T02:22:52;4.10;;;2.13;;
16737;SDS011;17906;47.684;10.806;2023-07-31T02:25:18;3.20;;;2.10;;
16737;SDS011;17906;47.684;10.806;2023-07-31T02:27:44;4.83;;;1.73;;
16737;SDS011;17906;47.684;10.806;2023-07-31T02:30:11;3.20;;;2.03;;
16737;SDS011;17906;47.684;10.806;2023-07-31T02:32:37;4.03;;;2.57;;
16737;SDS011;17906;47.684;10.806;2023-07-31T02:35:05;2.53;;;1.60;;
16737;SDS011;17906;47.684;10.806;2023-07-31T02:37:32;3.77;;;1.60;;
16737;SDS011;17906;47.684;10.806;2023-07-31T02:39:58;5.13;;;1.93;;
16737;SDS011;17906;47.684;10.806;2023-07-31T02:42:25;5.03;;;2.10;;
16737;SDS011;17906;47.684;10.806;2023-07-31T02:44:51;3.73;;;1.97;;
16737;SDS011;17906;47.684;10.806;2023-07-31T02:47:20;2.93;;;1.90;;
16737;SDS011;17906;47.684;10.806;2023-07-31T02:49:47;2.67;;;1.67;;
16737;SDS011;17906;47.684;10.806;2023-07-31T02:52:15;2.53;;;2.10;;
16737;SDS011;17906;47.684;10.806;2023-07-31T02:54:41;2.33;;;1.90;;
16737;SDS011;17906;47.684;10.806;2023-07-31T02:57:07;3.00;;;1.80;;
16737;SDS011;17906;47.684;10.806;2023-07-31T02:59:34;2.73;;;1.70;;
16737;SDS011;17906;47.684;10.806;2023-07-31T03:02:00;6.17;;;1.90;;
16737;SDS011;17906;47.684;10.806;2023-07-31T03:04:27;5.67;;;1.90;;
16737;SDS011;17906;47.684;10.806;2023-07-31T03:06:53;2.57;;;1.97;;
16737;SDS011;17906;47.684;10.806;2023-07-31T03:09:21;2.13;;;1.50;;
16737;SDS011;17906;47.684;10.806;2023-07-31T03:11:48;2.57;;;1.60;;
16737;SDS011;17906;47.684;10.806;2023-07-31T03:14:14;2.53;;;1.60;;
16737;SDS011;17906;47.684;10.806;2023-07-31T03:16:40;5.83;;;1.80;;
16737;SDS011;17906;47.684;10.806;2023-07-31T03:19:07;3.17;;;1.70;;
16737;SDS011;17906;47.684;10.806;2023-07-31T03:21:33;2.47;;;1.80;;
16737;SDS011;17906;47.684;10.806;2023-07-31T03:24:00;3.17;;;1.60;;
16737;SDS011;17906;47.684;10.806;2023-07-31T03:26:28;3.37;;;1.63;;
16737;SDS011;17906;47.684;10.806;2023-07-31T03:28:54;2.07;;;1.50;;
16737;SDS011;17906;47.684;10.806;2023-07-31T03:31:21;5.23;;;2.10;;
16737;SDS011;17906;47.684;10.806;2023-07-31T03:33:47;5.57;;;1.93;;
16737;SDS011;17906;47.684;10.806;2023-07-31T03:36:14;5.57;;;1.80;;
16737;SDS011;17906;47.684;10.806;2023-07-31T03:38:40;3.37;;;2.10;;
16737;SDS011;17906;47.684;10.806;2023-07-31T03:41:06;3.53;;;1.70;;
16737;SDS011;17906;47.684;10.806;2023-07-31T03:43:34;3.00;;;1.37;;
16737;SDS011;17906;47.684;10.806;2023-07-31T03:46:00;1.70;;;1.30;;
16737;SDS011;17906;47.684;10.806;2023-07-31T03:48:27;1.30;;;1.03;;
16737;SDS011;17906;47.684;10.806;2023-07-31T03:50:54;3.83;;;1.70;;
16737;SDS011;17906;47.684;10.806;2023-07-31T03:53:20;3.20;;;2.00;;
16737;SDS011;17906;47.684;10.806;2023-07-31T03:55:47;3.80;;;1.67;;
16737;SDS011;17906;47.684;10.806;2023-07-31T03:58:13;2.30;;;1.77;;
16737;SDS011;17906;47.684;10.806;2023-07-31T04:00:41;4.60;;;1.70;;
16737;SDS011;17906;47.684;10.806;2023-07-31T04:03:07;4.90;;;1.83;;
16737;SDS011;17906;47.684;10.806;2023-07-31T04:05:37;2.23;;;1.43;;
16737;SDS011;17906;47.684;10.806;2023-07-31T04:08:04;2.93;;;1.83;;
16737;SDS011;17906;47.684;10.806;2023-07-31T04:10:30;2.20;;;1.67;;
16737;SDS011;17906;47.684;10.806;2023-07-31T04:12:58;5.13;;;2.13;;
16737;SDS011;17906;47.684;10.806;2023-07-31T04:15:24;3.83;;;1.90;;
16737;SDS011;17906;47.684;10.806;2023-07-31T04:17:52;3.37;;;1.30;;
16737;SDS011;17906;47.684;10.806;2023-07-31T04:20:19;2.57;;;1.57;;
16737;SDS011;17906;47.684;10.806;2023-07-31T04:22:45;5.67;;;2.00;;
16737;SDS011;17906;47.684;10.806;2023-07-31T04:25:11;3.93;;;2.00;;
16737;SDS011;17906;47.684;10.806;2023-07-31T04:27:38;3.23;;;1.70;;
16737;SDS011;17906;47.684;10.806;2023-07-31T04:30:05;2.20;;;1.53;;
16737;SDS011;17906;47.684;10.806;2023-07-31T04:32:32;2.47;;;1.57;;
16737;SDS011;17906;47.684;10.806;2023-07-31T04:34:59;4.13;;;1.60;;
16737;SDS011;17906;47.684;10.806;2023-07-31T04:37:26;3.67;;;1.80;;
16737;SDS011;17906;47.684;10.806;2023-07-31T04:39:52;5.47;;;1.87;;
16737;SDS011;17906;47.684;10.806;2023-07-31T04:42:18;2.63;;;1.93;;
16737;SDS011;17906;47.684;10.806;2023-07-31T04:44:45;3.20;;;1.80;;
16737;SDS011;17906;47.684;10.806;2023-07-31T04:47:11;2.77;;;1.70;;
16737;SDS011;17906;47.684;10.806;2023-07-31T04:49:38;5.43;;;1.83;;
16737;SDS011;17906;47.684;10.806;2023-07-31T04:52:05;6.93;;;2.70;;
16737;SDS011;17906;47.684;10.806;2023-07-31T04:54:32;3.53;;;2.33;;
16737;SDS011;17906;47.684;10.806;2023-07-31T04:56:58;4.23;;;2.70;;
16737;SDS011;17906;47.684;10.806;2023-07-31T04:59:24;4.20;;;2.40;;
16737;SDS011;17906;47.684;10.806;2023-07-31T05:01:51;4.83;;;2.80;;
16737;SDS011;17906;47.684;10.806;2023-07-31T05:04:17;5.57;;;3.97;;
16737;SDS011;17906;47.684;10.806;2023-07-31T05:06:44;5.30;;;3.60;;
16737;SDS011;17906;47.684;10.806;2023-07-31T05:09:12;6.43;;;3.30;;
16737;SDS011;17906;47.684;10.806;2023-07-31T05:11:38;4.97;;;3.37;;
16737;SDS011;17906;47.684;10.806;2023-07-31T05:14:05;6.33;;;3.10;;
16737;SDS011;17906;47.684;10.806;2023-07-31T05:16:32;7.30;;;3.10;;
16737;SDS011;17906;47.684;10.806;2023-07-31T05:18:59;5.67;;;3.03;;
16737;SDS011;17906;47.684;10.806;2023-07-31T05:21:25;6.63;;;3.17;;
16737;SDS011;17906;47.684;10.806;2023-07-31T05:23:52;6.50;;;2.80;;
16737;SDS011;17906;47.684;10.806;2023-07-31T05:26:20;5.33;;;3.03;;
16737;SDS011;17906;47.684;10.806;2023-07-31T05:28:46;4.90;;;2.97;;
16737;SDS011;17906;47.684;10.806;2023-07-31T05:31:13;5.20;;;2.77;;
16737;SDS011;17906;47.684;10.806;2023-07-31T05:33:39;6.40;;;2.87;;
16737;SDS011;17906;47.684;10.806;2023-07-31T05:36:05;7.97;;;3.43;;
16737;SDS011;17906;47.684;10.806;2023-07-31T05:38:32;7.40;;;3.20;;
16737;SDS011;17906;47.684;10.806;2023-07-31T05:40:58;6.73;;;3.63;;
16737;SDS011;17906;47.684;10.806;2023-07-31T05:43:26;8.13;;;3.37;;
16737;SDS011;17906;47.684;10.806;2023-07-31T05:45:52;4.60;;;3.00;;
16737;SDS011;17906;47.684;10.806;2023-07-31T05:48:18;4.90;;;3.10;;
16737;SDS011;17906;47.684;10.806;2023-07-31T05:50:45;7.43;;;2.90;;
16737;SDS011;17906;47.684;10.806;2023-07-31T05:53:11;5.63;;;2.93;;
16737;SDS011;17906;47.684;10.806;2023-07-31T05:55:38;3.60;;;2.50;;
16737;SDS011;17906;47.684;10.806;2023-07-31T05:58:04;3.53;;;2.40;;
16737;SDS011;17906;47.684;10.806;2023-07-31T06:00:32;7.57;;;2.63;;
16737;SDS011;17906;47.684;10.806;2023-07-31T06:02:58;4.37;;;2.50;;
16737;SDS011;17906;47.684;10.806;2023-07-31T06:05:24;4.40;;;2.33;;
16737;SDS011;17906;47.684;10.806;2023-07-31T06:07:51;6.77;;;2.50;;
16737;SDS011;17906;47.684;10.806;2023-07-31T06:10:17;6.37;;;2.63;;
16737;SDS011;17906;47.684;10.806;2023-07-31T06:12:44;5.77;;;2.60;;
16737;SDS011;17906;47.684;10.806;2023-07-31T06:15:10;5.27;;;2.60;;
16737;SDS011;17906;47.684;10.806;2023-07-31T06:17:38;4.67;;;2.13;;
16737;SDS011;17906;47.684;10.806;2023-07-31T06:20:05;5.10;;;2.13;;
16737;SDS011;17906;47.684;10.806;2023-07-31T06:22:32;5.57;;;2.63;;
16737;SDS011;17906;47.684;10.806;2023-07-31T06:24:58;4.80;;;2.47;;
16737;SDS011;17906;47.684;10.806;2023-07-31T06:27:25;4.70;;;2.40;;
16737;SDS011;17906;47.684;10.806;2023-07-31T06:29:51;3.78;;;2.03;;
16737;SDS011;17906;47.684;10.806;2023-07-31T06:32:17;4.82;;;2.55;;
16737;SDS011;17906;47.684;10.806;2023-07-31T06:34:45;3.05;;;2.17;;
16737;SDS011;17906;47.684;10.806;2023-07-31T06:37:12;3.63;;;2.30;;
16737;SDS011;17906;47.684;10.806;2023-07-31T06:39:38;4.97;;;2.80;;
16737;SDS011;17906;47.684;10.806;2023-07-31T06:42:04;3.10;;;2.28;;
16737;SDS011;17906;47.684;10.806;2023-07-31T06:44:31;5.20;;;2.20;;
16737;SDS011;17906;47.684;10.806;2023-07-31T06:46:57;3.97;;;2.78;;
16737;SDS011;17906;47.684;10.806;2023-07-31T06:49:23;4.00;;;2.40;;
16737;SDS011;17906;47.684;10.806;2023-07-31T06:51:51;4.88;;;2.65;;
16737;SDS011;17906;47.684;10.806;2023-07-31T06:54:18;3.95;;;2.42;;
16737;SDS011;17906;47.684;10.806;2023-07-31T06:56:44;5.43;;;2.53;;
16737;SDS011;17906;47.684;10.806;2023-07-31T06:59:10;4.18;;;2.42;;
16737;SDS011;17906;47.684;10.806;2023-07-31T07:01:37;5.30;;;2.25;;
16737;SDS011;17906;47.684;10.806;2023-07-31T07:04:03;4.78;;;2.22;;
16737;SDS011;17906;47.684;10.806;2023-07-31T07:06:29;4.93;;;2.35;;
16737;SDS011;17906;47.684;10.806;2023-07-31T07:08:57;7.95;;;2.35;;
16737;SDS011;17906;47.684;10.806;2023-07-31T07:11:24;5.82;;;2.50;;
16737;SDS011;17906;47.684;10.806;2023-07-31T07:13:51;5.43;;;2.13;;
16737;SDS011;17906;47.684;10.806;2023-07-31T07:16:17;5.60;;;2.25;;
16737;SDS011;17906;47.684;10.806;2023-07-31T07:18:43;3.38;;;2.25;;
16737;SDS011;17906;47.684;10.806;2023-07-31T07:21:10;2.92;;;2.13;;
16737;SDS011;17906;47.684;10.806;2023-07-31T07:23:40;4.45;;;1.90;;
16737;SDS011;17906;47.684;10.806;2023-07-31T07:26:08;3.42;;;2.10;;
16737;SDS011;17906;47.684;10.806;2023-07-31T07:28:34;4.57;;;2.05;;
16737;SDS011;17906;47.684;10.806;2023-07-31T07:31:02;3.75;;;2.40;;
16737;SDS011;17906;47.684;10.806;2023-07-31T07:33:28;5.68;;;2.85;;
16737;SDS011;17906;47.684;10.806;2023-07-31T07:35:55;3.90;;;2.55;;
16737;SDS011;17906;47.684;10.806;2023-07-31T07:38:21;4.28;;;2.20;;
16737;SDS011;17906;47.684;10.806;2023-07-31T07:40:47;5.50;;;2.10;;
16737;SDS011;17906;47.684;10.806;2023-07-31T07:43:17;4.75;;;1.77;;
16737;SDS011;17906;47.684;10.806;2023-07-31T07:45:43;5.45;;;2.08;;
16737;SDS011;17906;47.684;10.806;2023-07-31T07:48:09;4.63;;;1.90;;
16737;SDS011;17906;47.684;10.806;2023-07-31T07:53:02;4.07;;;2.17;;
16737;SDS011;17906;47.684;10.806;2023-07-31T07:55:28;5.25;;;2.30;;
16737;SDS011;17906;47.684;10.806;2023-07-31T07:57:55;4.72;;;2.08;;
16737;SDS011;17906;47.684;10.806;2023-07-31T08:00:22;4.22;;;1.88;;
16737;SDS011;17906;47.684;10.806;2023-07-31T08:02:49;6.80;;;1.95;;
16737;SDS011;17906;47.684;10.806;2023-07-31T08:05:15;3.28;;;2.13;;
16737;SDS011;17906;47.684;10.806;2023-07-31T08:07:42;4.50;;;1.80;;
16737;SDS011;17906;47.684;10.806;2023-07-31T08:10:09;6.00;;;1.83;;
16737;SDS011;17906;47.684;10.806;2023-07-31T08:12:35;5.32;;;2.00;;
16737;SDS011;17906;47.684;10.806;2023-07-31T08:15:02;4.53;;;2.10;;
16737;SDS011;17906;47.684;10.806;2023-07-31T08:17:30;5.30;;;2.15;;
16737;SDS011;17906;47.684;10.806;2023-07-31T08:19:56;5.47;;;2.33;;
16737;SDS011;17906;47.684;10.806;2023-07-31T08:22:23;4.47;;;2.40;;
16737;SDS011;17906;47.684;10.806;2023-07-31T08:24:50;3.22;;;1.88;;
16737;SDS011;17906;47.684;10.806;2023-07-31T08:27:16;4.28;;;2.05;;
16737;SDS011;17906;47.684;10.806;2023-07-31T08:29:42;6.68;;;2.35;;
16737;SDS011;17906;47.684;10.806;2023-07-31T08:32:09;4.30;;;2.08;;
16737;SDS011;17906;47.684;10.806;2023-07-31T08:34:37;3.42;;;1.88;;
16737;SDS011;17906;47.684;10.806;2023-07-31T08:37:03;4.45;;;1.73;;
16737;SDS011;17906;47.684;10.806;2023-07-31T08:39:29;4.65;;;2.13;;
16737;SDS011;17906;47.684;10.806;2023-07-31T08:41:57;6.72;;;2.00;;
16737;SDS011;17906;47.684;10.806;2023-07-31T08:44:24;5.85;;;2.00;;
16737;SDS011;17906;47.684;10.806;2023-07-31T08:46:50;4.60;;;1.80;;
16737;SDS011;17906;47.684;10.806;2023-07-31T08:49:17;3.15;;;1.92;;
16737;SDS011;17906;47.684;10.806;2023-07-31T08:51:46;4.57;;;2.05;;
16737;SDS011;17906;47.684;10.806;2023-07-31T08:54:15;3.40;;;2.03;;
16737;SDS011;17906;47.684;10.806;2023-07-31T08:56:41;3.90;;;2.10;;
16737;SDS011;17906;47.684;10.806;2023-07-31T08:59:08;4.43;;;1.88;;
16737;SDS011;17906;47.684;10.806;2023-07-31T09:01:36;5.00;;;2.17;;
16737;SDS011;17906;47.684;10.806;2023-07-31T09:04:06;5.43;;;1.80;;
16737;SDS011;17906;47.684;10.806;2023-07-31T09:06:35;3.60;;;1.70;;
16737;SDS011;17906;47.684;10.806;2023-07-31T09:09:03;5.38;;;2.15;;
16737;SDS011;17906;47.684;10.806;2023-07-31T09:11:29;3.55;;;1.90;;
16737;SDS011;17906;47.684;10.806;2023-07-31T09:13:56;3.03;;;1.70;;
16737;SDS011;17906;47.684;10.806;2023-07-31T09:16:26;4.32;;;2.05;;
16737;SDS011;17906;47.684;10.806;2023-07-31T09:18:54;4.90;;;1.90;;
16737;SDS011;17906;47.684;10.806;2023-07-31T09:21:21;3.95;;;1.85;;
16737;SDS011;17906;47.684;10.806;2023-07-31T09:23:48;4.25;;;1.70;;
16737;SDS011;17906;47.684;10.806;2023-07-31T09:26:29;3.90;;;1.95;;
16737;SDS011;17906;47.684;10.806;2023-07-31T09:28:55;3.80;;;1.77;;
16737;SDS011;17906;47.684;10.806;2023-07-31T09:31:31;3.35;;;1.60;;
16737;SDS011;17906;47.684;10.806;2023-07-31T09:33:57;3.38;;;1.90;;
16737;SDS011;17906;47.684;10.806;2023-07-31T09:36:24;3.40;;;1.58;;
16737;SDS011;17906;47.684;10.806;2023-07-31T09:38:50;3.22;;;1.67;;
16737;SDS011;17906;47.684;10.806;2023-07-31T09:41:16;7.05;;;2.10;;
16737;SDS011;17906;47.684;10.806;2023-07-31T09:43:44;3.75;;;1.90;;
16737;SDS011;17906;47.684;10.806;2023-07-31T09:46:19;5.90;;;1.90;;
16737;SDS011;17906;47.684;10.806;2023-07-31T09:48:46;5.03;;;1.80;;
16737;SDS011;17906;47.684;10.806;2023-07-31T09:51:12;6.60;;;1.80;;
16737;SDS011;17906;47.684;10.806;2023-07-31T09:53:39;3.63;;;2.05;;
16737;SDS011;17906;47.684;10.806;2023-07-31T09:56:05;3.88;;;1.80;;
16737;SDS011;17906;47.684;10.806;2023-07-31T09:58:33;7.03;;;2.10;;
16737;SDS011;17906;47.684;10.806;2023-07-31T10:01:01;3.35;;;1.70;;
16737;SDS011;17906;47.684;10.806;2023-07-31T10:03:28;2.83;;;1.73;;
16737;SDS011;17906;47.684;10.806;2023-07-31T10:05:55;4.43;;;1.80;;
16737;SDS011;17906;47.684;10.806;2023-07-31T10:08:23;6.40;;;1.85;;
16737;SDS011;17906;47.684;10.806;2023-07-31T10:10:54;4.88;;;1.90;;
16737;SDS011;17906;47.684;10.806;2023-07-31T10:13:21;3.80;;;1.80;;
16737;SDS011;17906;47.684;10.806;2023-07-31T10:15:47;5.70;;;1.85;;
16737;SDS011;17906;47.684;10.806;2023-07-31T10:18:16;4.80;;;2.00;;
16737;SDS011;17906;47.684;10.806;2023-07-31T10:20:43;3.50;;;2.08;;
16737;SDS011;17906;47.684;10.806;2023-07-31T10:23:10;4.00;;;1.90;;
16737;SDS011;17906;47.684;10.806;2023-07-31T10:25:37;5.13;;;2.40;;
16737;SDS011;17906;47.684;10.806;2023-07-31T10:28:04;5.53;;;2.08;;
16737;SDS011;17906;47.684;10.806;2023-07-31T10:30:32;6.22;;;2.30;;
16737;SDS011;17906;47.684;10.806;2023-07-31T10:32:59;4.40;;;1.60;;
16737;SDS011;17906;47.684;10.806;2023-07-31T10:35:28;4.38;;;1.83;;
16737;SDS011;17906;47.684;10.806;2023-07-31T10:37:54;3.58;;;2.17;;
16737;SDS011;17906;47.684;10.806;2023-07-31T10:40:23;3.30;;;1.77;;
16737;SDS011;17906;47.684;10.806;2023-07-31T10:42:50;6.40;;;2.50;;
16737;SDS011;17906;47.684;10.806;2023-07-31T10:45:23;3.40;;;2.00;;
16737;SDS011;17906;47.684;10.806;2023-07-31T10:47:51;3.42;;;1.83;;
16737;SDS011;17906;47.684;10.806;2023-07-31T10:50:24;4.00;;;2.15;;
16737;SDS011;17906;47.684;10.806;2023-07-31T10:52:52;5.13;;;2.03;;
16737;SDS011;17906;47.684;10.806;2023-07-31T10:55:26;3.83;;;1.80;;
16737;SDS011;17906;47.684;10.806;2023-07-31T10:57:52;4.82;;;2.60;;
16737;SDS011;17906;47.684;10.806;2023-07-31T11:00:20;4.97;;;2.00;;
16737;SDS011;17906;47.684;10.806;2023-07-31T11:02:56;4.40;;;1.90;;
16737;SDS011;17906;47.684;10.806;2023-07-31T11:05:31;4.78;;;2.72;;
16737;SDS011;17906;47.684;10.806;2023-07-31T11:08:11;4.38;;;1.83;;
16737;SDS011;17906;47.684;10.806;2023-07-31T11:10:37;7.53;;;2.38;;
16737;SDS011;17906;47.684;10.806;2023-07-31T11:13:04;6.20;;;2.10;;
16737;SDS011;17906;47.684;10.806;2023-07-31T11:15:30;3.20;;;1.98;;
16737;SDS011;17906;47.684;10.806;2023-07-31T11:17:57;4.82;;;2.03;;
16737;SDS011;17906;47.684;10.806;2023-07-31T11:20:23;3.88;;;2.03;;
16737;SDS011;17906;47.684;10.806;2023-07-31T11:22:50;4.53;;;2.00;;
16737;SDS011;17906;47.684;10.806;2023-07-31T11:25:18;4.75;;;1.90;;
16737;SDS011;17906;47.684;10.806;2023-07-31T11:27:44;5.60;;;2.50;;
16737;SDS011;17906;47.684;10.806;2023-07-31T11:30:11;5.38;;;2.10;;
16737;SDS011;17906;47.684;10.806;2023-07-31T11:32:37;3.97;;;2.05;;
16737;SDS011;17906;47.684;10.806;2023-07-31T11:35:04;3.85;;;1.92;;
16737;SDS011;17906;47.684;10.806;2023-07-31T11:37:39;3.90;;;2.10;;
16737;SDS011;17906;47.684;10.806;2023-07-31T11:40:06;3.55;;;2.20;;
16737;SDS011;17906;47.684;10.806;2023-07-31T11:42:35;5.30;;;1.90;;
16737;SDS011;17906;47.684;10.806;2023-07-31T11:45:02;2.90;;;2.05;;
16737;SDS011;17906;47.684;10.806;2023-07-31T11:47:28;2.85;;;1.98;;
16737;SDS011;17906;47.684;10.806;2023-07-31T11:49:55;2.58;;;1.90;;
16737;SDS011;17906;47.684;10.806;2023-07-31T11:52:22;4.38;;;2.20;;
16737;SDS011;17906;47.684;10.806;2023-07-31T11:54:49;2.75;;;1.80;;
16737;SDS011;17906;47.684;10.806;2023-07-31T11:57:16;5.28;;;2.05;;
16737;SDS011;17906;47.684;10.806;2023-07-31T11:59:44;3.00;;;2.00;;
16737;SDS011;17906;47.684;10.806;2023-07-31T12:02:10;5.35;;;2.10;;
16737;SDS011;17906;47.684;10.806;2023-07-31T12:04:37;6.75;;;2.50;;
16737;SDS011;17906;47.684;10.806;2023-07-31T12:07:03;3.08;;;1.75;;
16737;SDS011;17906;47.684;10.806;2023-07-31T12:09:30;5.00;;;2.10;;
16737;SDS011;17906;47.684;10.806;2023-07-31T12:11:56;3.40;;;2.20;;
16737;SDS011;17906;47.684;10.806;2023-07-31T12:14:23;5.55;;;2.47;;
16737;SDS011;17906;47.684;10.806;2023-07-31T12:16:54;3.47;;;1.90;;
16737;SDS011;17906;47.684;10.806;2023-07-31T12:19:21;4.22;;;2.10;;
16737;SDS011;17906;47.684;10.806;2023-07-31T12:21:47;3.33;;;1.83;;
16737;SDS011;17906;47.684;10.806;2023-07-31T12:24:14;2.60;;;1.88;;
16737;SDS011;17906;47.684;10.806;2023-07-31T12:26:42;4.47;;;2.10;;
16737;SDS011;17906;47.684;10.806;2023-07-31T12:29:11;3.35;;;2.00;;
16737;SDS011;17906;47.684;10.806;2023-07-31T12:31:37;6.88;;;2.50;;
16737;SDS011;17906;47.684;10.806;2023-07-31T12:34:15;4.57;;;2.20;;
16737;SDS011;17906;47.684;10.806;2023-07-31T12:36:42;3.42;;;2.25;;
16737;SDS011;17906;47.684;10.806;2023-07-31T12:39:08;4.47;;;1.90;;
16737;SDS011;17906;47.684;10.806;2023-07-31T12:41:35;4.00;;;2.20;;
16737;SDS011;17906;47.684;10.806;2023-07-31T12:44:02;3.60;;;2.10;;
16737;SDS011;17906;47.684;10.806;2023-07-31T12:46:29;3.92;;;2.10;;
16737;SDS011;17906;47.684;10.806;2023-07-31T12:48:55;3.50;;;2.15;;
16737;SDS011;17906;47.684;10.806;2023-07-31T12:51:23;4.80;;;2.45;;
16737;SDS011;17906;47.684;10.806;2023-07-31T12:53:49;4.13;;;2.17;;
16737;SDS011;17906;47.684;10.806;2023-07-31T12:56:16;3.50;;;2.00;;
16737;SDS011;17906;47.684;10.806;2023-07-31T12:58:42;5.07;;;2.00;;
16737;SDS011;17906;47.684;10.806;2023-07-31T13:01:09;3.50;;;2.20;;
16737;SDS011;17906;47.684;10.806;2023-07-31T13:03:35;3.22;;;2.05;;
16737;SDS011;17906;47.684;10.806;2023-07-31T13:06:01;4.18;;;1.85;;
16737;SDS011;17906;47.684;10.806;2023-07-31T13:08:29;4.22;;;2.00;;
16737;SDS011;17906;47.684;10.806;2023-07-31T13:10:55;6.00;;;2.22;;
16737;SDS011;17906;47.684;10.806;2023-07-31T13:13:22;3.65;;;2.20;;
16737;SDS011;17906;47.684;10.806;2023-07-31T13:15:48;4.78;;;2.10;;
16737;SDS011;17906;47.684;10.806;2023-07-31T13:18:15;5.05;;;1.88;;
16737;SDS011;17906;47.684;10.806;2023-07-31T13:20:41;3.55;;;1.88;;
16737;SDS011;17906;47.684;10.806;2023-07-31T13:23:07;4.95;;;2.22;;
16737;SDS011;17906;47.684;10.806;2023-07-31T13:25:35;3.60;;;1.67;;
16737;SDS011;17906;47.684;10.806;2023-07-31T13:28:02;3.65;;;1.73;;
16737;SDS011;17906;47.684;10.806;2023-07-31T13:30:28;4.10;;;1.60;;
16737;SDS011;17906;47.684;10.806;2023-07-31T13:32:54;3.35;;;2.05;;
16737;SDS011;17906;47.684;10.806;2023-07-31T13:35:21;4.50;;;1.77;;
16737;SDS011;17906;47.684;10.806;2023-07-31T13:37:47;3.50;;;1.92;;
16737;SDS011;17906;47.684;10.806;2023-07-31T13:40:13;3.53;;;1.65;;
16737;SDS011;17906;47.684;10.806;2023-07-31T13:42:41;2.95;;;1.90;;
16737;SDS011;17906;47.684;10.806;2023-07-31T13:45:08;3.47;;;2.10;;
16737;SDS011;17906;47.684;10.806;2023-07-31T13:47:34;3.78;;;1.77;;
16737;SDS011;17906;47.684;10.806;2023-07-31T13:50:02;5.10;;;1.90;;
16737;SDS011;17906;47.684;10.806;2023-07-31T13:52:28;4.72;;;2.10;;
16737;SDS011;17906;47.684;10.806;2023-07-31T13:54:55;4.03;;;1.65;;
16737;SDS011;17906;47.684;10.806;2023-07-31T13:57:21;3.65;;;1.67;;
16737;SDS011;17906;47.684;10.806;2023-07-31T13:59:49;3.55;;;1.50;;
16737;SDS011;17906;47.684;10.806;2023-07-31T14:02:16;2.47;;;1.48;;
16737;SDS011;17906;47.684;10.806;2023-07-31T14:04:42;4.38;;;2.00;;
16737;SDS011;17906;47.684;10.806;2023-07-31T14:07:08;3.50;;;1.67;;
16737;SDS011;17906;47.684;10.806;2023-07-31T14:09:35;3.58;;;1.70;;
16737;SDS011;17906;47.684;10.806;2023-07-31T14:12:01;2.58;;;1.90;;
16737;SDS011;17906;47.684;10.806;2023-07-31T14:14:28;4.75;;;1.83;;
16737;SDS011;17906;47.684;10.806;2023-07-31T14:16:55;2.63;;;1.70;;
16737;SDS011;17906;47.684;10.806;2023-07-31T14:19:22;3.58;;;1.75;;
16737;SDS011;17906;47.684;10.806;2023-07-31T14:21:50;5.53;;;2.15;;
16737;SDS011;17906;47.684;10.806;2023-07-31T14:24:16;4.38;;;1.70;;
16737;SDS011;17906;47.684;10.806;2023-07-31T14:26:42;4.57;;;1.88;;
16737;SDS011;17906;47.684;10.806;2023-07-31T14:29:09;2.38;;;1.42;;
16737;SDS011;17906;47.684;10.806;2023-07-31T14:31:35;2.38;;;1.67;;
16737;SDS011;17906;47.684;10.806;2023-07-31T14:34:03;3.05;;;1.83;;